createdAt,value
2017-07-16T00:00:03.446Z,89.15
2017-07-16T00:00:07.255Z,89.24
2017-07-16T00:00:11.344Z,89.15
2017-07-16T00:00:15.425Z,89.15
2017-07-16T00:00:19.491Z,88.86
2017-07-16T00:00:23.561Z,88.86
2017-07-16T00:00:27.760Z,89.15
2017-07-16T00:00:31.709Z,89.24
2017-07-16T00:00:35.661Z,89.15
2017-07-16T00:00:39.597Z,88.86
2017-07-16T00:00:43.810Z,89.05
2017-07-16T00:00:48.022Z,89.15
2017-07-16T00:00:52.353Z,88.86
2017-07-16T00:00:56.180Z,88.86
2017-07-16T00:01:00.379Z,88.95
2017-07-16T00:01:04.074Z,89.15
2017-07-16T00:01:08.280Z,89.15
2017-07-16T00:01:12.482Z,89.15
2017-07-16T00:01:16.826Z,89.05
2017-07-16T00:01:21.045Z,89.15
2017-07-16T00:01:25.356Z,89.15
2017-07-16T00:01:29.328Z,88.86
2017-07-16T00:01:33.679Z,89.15
2017-07-16T00:01:37.379Z,89.15
2017-07-16T00:01:41.730Z,89.15
2017-07-16T00:01:45.935Z,89.15
2017-07-16T00:01:50.162Z,89.05
2017-07-16T00:01:54.106Z,89.15
2017-07-16T00:01:58.348Z,89.05
2017-07-16T00:02:02.042Z,89.15
2017-07-16T00:02:05.942Z,89.15
2017-07-16T00:02:10.017Z,88.95
2017-07-16T00:02:14.225Z,89.05
2017-07-16T00:02:18.295Z,89.05
2017-07-16T00:02:22.242Z,88.95
2017-07-16T00:02:26.448Z,89.05
2017-07-16T00:02:30.656Z,88.95
2017-07-16T00:02:34.751Z,88.95
2017-07-16T00:02:38.826Z,88.95
2017-07-16T00:02:42.649Z,88.95
2017-07-16T00:02:47.099Z,89.15
2017-07-16T00:02:51.299Z,88.86
2017-07-16T00:02:55.542Z,88.95
2017-07-16T00:02:59.603Z,88.95
2017-07-16T00:03:03.442Z,89.05
2017-07-16T00:03:07.134Z,89.05
2017-07-16T00:03:11.090Z,88.95
2017-07-16T00:03:15.149Z,88.86
2017-07-16T00:03:19.109Z,89.05
2017-07-16T00:03:23.330Z,89.05
2017-07-16T00:03:27.270Z,88.95
2017-07-16T00:03:31.613Z,88.95
2017-07-16T00:03:35.808Z,88.95
2017-07-16T00:03:39.779Z,89.05
2017-07-16T00:03:43.990Z,89.05
2017-07-16T00:03:48.340Z,89.34
2017-07-16T00:03:52.547Z,88.95
2017-07-16T00:03:56.624Z,88.95
2017-07-16T00:04:00.461Z,88.86
2017-07-16T00:04:04.589Z,88.95
2017-07-16T00:04:08.427Z,88.86
2017-07-16T00:04:12.620Z,88.86
2017-07-16T00:04:16.703Z,89.34
2017-07-16T00:04:20.660Z,89.34
2017-07-16T00:04:24.744Z,88.86
2017-07-16T00:04:29.191Z,88.86
2017-07-16T00:04:33.526Z,89.05
2017-07-16T00:04:37.363Z,88.76
2017-07-16T00:04:41.440Z,89.24
2017-07-16T00:04:45.771Z,88.86
2017-07-16T00:04:49.847Z,88.95
2017-07-16T00:04:54.161Z,88.86
2017-07-16T00:04:58.362Z,89.34
2017-07-16T00:05:02.434Z,88.95
2017-07-16T00:05:06.267Z,88.86
2017-07-16T00:05:10.514Z,88.86
2017-07-16T00:05:14.466Z,89.24
2017-07-16T00:05:18.560Z,88.86
2017-07-16T00:05:22.640Z,89.05
2017-07-16T00:05:26.843Z,88.95
2017-07-16T00:05:30.669Z,88.95
2017-07-16T00:05:34.622Z,88.95
2017-07-16T00:05:38.456Z,88.95
2017-07-16T00:05:42.640Z,88.86
2017-07-16T00:05:47.100Z,88.86
2017-07-16T00:05:50.812Z,88.95
2017-07-16T00:05:55.018Z,88.86
2017-07-16T00:05:58.850Z,88.95
2017-07-16T00:06:02.924Z,88.95
2017-07-16T00:06:06.879Z,88.95
2017-07-16T00:06:10.826Z,88.95
2017-07-16T00:06:14.899Z,88.95
2017-07-16T00:06:19.245Z,89.05
2017-07-16T00:06:23.328Z,88.95
2017-07-16T00:06:27.422Z,88.95
2017-07-16T00:06:31.512Z,89.05
2017-07-16T00:06:35.586Z,88.95
2017-07-16T00:06:39.658Z,88.86
2017-07-16T00:06:43.748Z,88.86
2017-07-16T00:06:48.229Z,88.95
2017-07-16T00:06:52.304Z,88.95
2017-07-16T00:06:56.537Z,88.86
2017-07-16T00:07:00.744Z,89.15
2017-07-16T00:07:04.867Z,88.95
2017-07-16T00:07:09.192Z,88.95
2017-07-16T00:07:13.272Z,88.95
2017-07-16T00:07:17.215Z,89.05
2017-07-16T00:07:21.159Z,89.05
2017-07-16T00:07:25.382Z,88.95
2017-07-16T00:07:29.721Z,88.95
2017-07-16T00:07:33.928Z,88.95
2017-07-16T00:07:38.003Z,89.15
2017-07-16T00:07:41.823Z,88.95
2017-07-16T00:07:45.909Z,88.86
2017-07-16T00:07:50.247Z,88.95
2017-07-16T00:07:54.202Z,89.05
2017-07-16T00:07:58.646Z,89.15
2017-07-16T00:08:02.590Z,89.05
2017-07-16T00:08:06.420Z,89.05
2017-07-16T00:08:10.905Z,88.95
2017-07-16T00:08:15.004Z,89.05
2017-07-16T00:08:19.233Z,89.05
2017-07-16T00:08:23.454Z,88.95
2017-07-16T00:08:27.545Z,89.15
2017-07-16T00:08:31.618Z,88.95
2017-07-16T00:08:35.567Z,89.05
2017-07-16T00:08:39.536Z,88.95
2017-07-16T00:08:43.498Z,89.15
2017-07-16T00:08:47.446Z,88.95
2017-07-16T00:08:51.539Z,89.05
2017-07-16T00:08:55.477Z,89.15
2017-07-16T00:08:59.918Z,89.15
2017-07-16T00:09:03.741Z,89.15
2017-07-16T00:09:07.707Z,89.15
2017-07-16T00:09:11.667Z,88.86
2017-07-16T00:09:15.736Z,88.86
2017-07-16T00:09:19.824Z,88.86
2017-07-16T00:09:23.905Z,89.15
2017-07-16T00:09:27.980Z,88.86
2017-07-16T00:09:32.194Z,89.15
2017-07-16T00:09:36.399Z,89.15
2017-07-16T00:09:40.597Z,89.24
2017-07-16T00:09:44.797Z,89.05
2017-07-16T00:09:49.008Z,89.15
2017-07-16T00:09:53.074Z,89.24
2017-07-16T00:09:57.031Z,89.34
2017-07-16T00:10:01.097Z,89.15
2017-07-16T00:10:05.178Z,89.15
2017-07-16T00:10:09.123Z,88.86
2017-07-16T00:10:13.069Z,89.15
2017-07-16T00:10:17.527Z,89.15
2017-07-16T00:10:21.991Z,88.86
2017-07-16T00:10:26.063Z,89.15
2017-07-16T00:10:30.137Z,89.15
2017-07-16T00:10:34.073Z,89.15
2017-07-16T00:10:38.147Z,88.95
2017-07-16T00:10:41.954Z,88.95
2017-07-16T00:10:46.174Z,89.15
2017-07-16T00:10:50.268Z,88.95
2017-07-16T00:10:54.224Z,89.05
2017-07-16T00:10:58.415Z,89.15
2017-07-16T00:11:02.117Z,89.05
2017-07-16T00:11:06.069Z,89.15
2017-07-16T00:11:10.131Z,89.15
2017-07-16T00:11:14.219Z,89.05
2017-07-16T00:11:18.287Z,89.15
2017-07-16T00:11:22.494Z,89.15
2017-07-16T00:11:26.570Z,89.15
2017-07-16T00:11:30.932Z,89.15
2017-07-16T00:11:35.026Z,89.15
2017-07-16T00:11:38.981Z,88.86
2017-07-16T00:11:43.188Z,89.15
2017-07-16T00:11:47.397Z,88.86
2017-07-16T00:11:51.355Z,88.86
2017-07-16T00:11:55.567Z,89.05
2017-07-16T00:11:59.531Z,89.05
2017-07-16T00:12:03.313Z,89.05
2017-07-16T00:12:07.138Z,89.05
2017-07-16T00:12:11.204Z,89.15
2017-07-16T00:12:15.666Z,89.05
2017-07-16T00:12:19.877Z,89.05
2017-07-16T00:12:23.835Z,89.05
2017-07-16T00:12:27.787Z,88.67
2017-07-16T00:12:31.863Z,89.15
2017-07-16T00:12:35.809Z,88.67
2017-07-16T00:12:39.505Z,88.76
2017-07-16T00:12:43.443Z,88.86
2017-07-16T00:12:47.785Z,88.86
2017-07-16T00:12:51.621Z,88.76
2017-07-16T00:12:55.988Z,89.34
2017-07-16T00:13:00.058Z,89.15
2017-07-16T00:13:03.887Z,88.86
2017-07-16T00:13:07.849Z,89.15
2017-07-16T00:13:11.802Z,88.95
2017-07-16T00:13:15.875Z,89.15
2017-07-16T00:13:20.083Z,89.34
2017-07-16T00:13:24.418Z,89.34
2017-07-16T00:13:28.647Z,89.15
2017-07-16T00:13:32.592Z,89.15
2017-07-16T00:13:36.408Z,89.34
2017-07-16T00:13:40.362Z,89.15
2017-07-16T00:13:44.586Z,89.15
2017-07-16T00:13:48.909Z,89.15
2017-07-16T00:13:52.747Z,89.24
2017-07-16T00:13:56.978Z,89.24
2017-07-16T00:14:01.429Z,89.15
2017-07-16T00:14:05.484Z,89.15
2017-07-16T00:14:09.551Z,88.95
2017-07-16T00:14:13.381Z,89.05
2017-07-16T00:14:17.330Z,89.05
2017-07-16T00:14:21.049Z,89.24
2017-07-16T00:14:25.138Z,89.24
2017-07-16T00:14:29.328Z,89.24
2017-07-16T00:14:33.533Z,89.24
2017-07-16T00:14:37.619Z,89.43
2017-07-16T00:14:41.962Z,89.15
2017-07-16T00:14:45.917Z,89.24
2017-07-16T00:14:50.242Z,89.62
2017-07-16T00:14:54.307Z,89.62
2017-07-16T00:14:58.504Z,89.53
2017-07-16T00:15:02.571Z,89.43
2017-07-16T00:15:06.641Z,89.62
2017-07-16T00:15:10.884Z,89.43
2017-07-16T00:15:15.075Z,89.72
2017-07-16T00:15:19.157Z,89.43
2017-07-16T00:15:23.096Z,89.43
2017-07-16T00:15:27.042Z,89.53
2017-07-16T00:15:31.266Z,89.43
2017-07-16T00:15:35.083Z,89.34
2017-07-16T00:15:38.913Z,89.34
2017-07-16T00:15:43.001Z,89.43
2017-07-16T00:15:47.200Z,89.53
2017-07-16T00:15:51.287Z,89.15
2017-07-16T00:15:55.372Z,89.34
2017-07-16T00:15:59.841Z,89.91
2017-07-16T00:16:03.923Z,89.91
2017-07-16T00:16:07.999Z,89.72
2017-07-16T00:16:11.965Z,89.91
2017-07-16T00:16:15.789Z,89.43
2017-07-16T00:16:19.749Z,89.34
2017-07-16T00:16:23.687Z,89.43
2017-07-16T00:16:27.887Z,89.72
2017-07-16T00:16:31.962Z,89.43
2017-07-16T00:16:36.164Z,89.43
2017-07-16T00:16:40.146Z,89.62
2017-07-16T00:16:44.328Z,89.43
2017-07-16T00:16:48.642Z,89.24
2017-07-16T00:16:52.847Z,89.53
2017-07-16T00:16:56.929Z,89.53
2017-07-16T00:17:01.006Z,89.53
2017-07-16T00:17:05.213Z,90.01
2017-07-16T00:17:09.380Z,89.91
2017-07-16T00:17:13.702Z,89.53
2017-07-16T00:17:17.660Z,90.01
2017-07-16T00:17:21.861Z,89.91
2017-07-16T00:17:25.836Z,89.91
2017-07-16T00:17:29.799Z,89.53
2017-07-16T00:17:34.003Z,89.62
2017-07-16T00:17:37.712Z,89.91
2017-07-16T00:17:41.797Z,90.01
2017-07-16T00:17:45.879Z,89.62
2017-07-16T00:17:49.840Z,89.91
2017-07-16T00:17:53.919Z,89.91
2017-07-16T00:17:57.977Z,90.01
2017-07-16T00:18:02.191Z,89.91
2017-07-16T00:18:06.015Z,89.91
2017-07-16T00:18:10.094Z,90.01
2017-07-16T00:18:14.310Z,90.01
2017-07-16T00:18:18.280Z,90.01
2017-07-16T00:18:22.359Z,90.2
2017-07-16T00:18:26.193Z,90.3
2017-07-16T00:18:30.530Z,89.91
2017-07-16T00:18:34.752Z,90.01
2017-07-16T00:18:38.583Z,89.91
2017-07-16T00:18:42.534Z,89.91
2017-07-16T00:18:46.744Z,89.91
2017-07-16T00:18:50.947Z,90.01
2017-07-16T00:18:54.903Z,89.91
2017-07-16T00:18:59.234Z,89.91
2017-07-16T00:19:03.512Z,89.91
2017-07-16T00:19:07.847Z,89.43
2017-07-16T00:19:11.921Z,90.01
2017-07-16T00:19:16.260Z,90.1
2017-07-16T00:19:20.593Z,89.91
2017-07-16T00:19:24.905Z,89.91
2017-07-16T00:19:29.105Z,90.01
2017-07-16T00:19:33.178Z,90.3
2017-07-16T00:19:37.142Z,90.48
2017-07-16T00:19:40.969Z,90.39
2017-07-16T00:19:44.935Z,90.3
2017-07-16T00:19:49.008Z,90.39
2017-07-16T00:19:53.089Z,90.2
2017-07-16T00:19:56.925Z,90.2
2017-07-16T00:20:01.378Z,90.3
2017-07-16T00:20:05.127Z,90.2
2017-07-16T00:20:09.078Z,90.39
2017-07-16T00:20:13.290Z,90.3
2017-07-16T00:20:17.619Z,90.39
2017-07-16T00:20:21.955Z,90.1
2017-07-16T00:20:26.276Z,90.1
2017-07-16T00:20:30.733Z,90.2
2017-07-16T00:20:34.946Z,90.3
2017-07-16T00:20:39.027Z,90.1
2017-07-16T00:20:43.356Z,90.3
2017-07-16T00:20:47.722Z,90.2
2017-07-16T00:20:51.419Z,90.1
2017-07-16T00:20:55.099Z,90.1
2017-07-16T00:20:59.309Z,90.1
2017-07-16T00:21:03.564Z,90.1
2017-07-16T00:21:07.519Z,90.01
2017-07-16T00:21:11.472Z,90.39
2017-07-16T00:21:15.858Z,90.39
2017-07-16T00:21:19.694Z,90.39
2017-07-16T00:21:23.659Z,90.39
2017-07-16T00:21:27.615Z,90.39
2017-07-16T00:21:31.436Z,90.39
2017-07-16T00:21:35.384Z,90.39
2017-07-16T00:21:39.570Z,90.39
2017-07-16T00:21:43.535Z,90.3
2017-07-16T00:21:47.616Z,90.2
2017-07-16T00:21:51.436Z,90.3
2017-07-16T00:21:55.529Z,90.2
2017-07-16T00:21:59.625Z,90.2
2017-07-16T00:22:03.832Z,90.3
2017-07-16T00:22:07.912Z,90.3
2017-07-16T00:22:11.922Z,90.48
2017-07-16T00:22:15.618Z,90.3
2017-07-16T00:22:19.560Z,90.3
2017-07-16T00:22:23.248Z,90.48
2017-07-16T00:22:26.949Z,90.48
2017-07-16T00:22:30.637Z,89.91
2017-07-16T00:22:34.346Z,89.91
2017-07-16T00:22:38.035Z,89.91
2017-07-16T00:22:41.752Z,89.81
2017-07-16T00:22:45.448Z,89.91
2017-07-16T00:22:49.148Z,89.81
2017-07-16T00:22:52.840Z,89.53
2017-07-16T00:22:56.675Z,89.91
2017-07-16T00:23:00.619Z,90.01
2017-07-16T00:23:04.743Z,90.1
2017-07-16T00:23:08.569Z,89.53
2017-07-16T00:23:12.255Z,89.53
2017-07-16T00:23:15.944Z,89.43
2017-07-16T00:23:19.647Z,89.53
2017-07-16T00:23:23.346Z,89.53
2017-07-16T00:23:27.046Z,89.15
2017-07-16T00:23:30.750Z,89.43
2017-07-16T00:23:34.442Z,89.43
2017-07-16T00:23:38.135Z,89.53
2017-07-16T00:23:41.847Z,89.43
2017-07-16T00:23:45.556Z,89.62
2017-07-16T00:23:49.259Z,89.72
2017-07-16T00:23:53.207Z,89.43
2017-07-16T00:23:57.025Z,89.62
2017-07-16T00:24:00.727Z,89.53
2017-07-16T00:24:04.693Z,89.72
2017-07-16T00:24:08.494Z,89.53
2017-07-16T00:24:12.184Z,89.43
2017-07-16T00:24:15.891Z,89.43
2017-07-16T00:24:19.714Z,89.53
2017-07-16T00:24:23.660Z,89.43
2017-07-16T00:24:27.621Z,89.43
2017-07-16T00:24:31.979Z,89.43
2017-07-16T00:24:35.801Z,89.72
2017-07-16T00:24:39.876Z,89.43
2017-07-16T00:24:43.820Z,89.72
2017-07-16T00:24:48.299Z,89.72
2017-07-16T00:24:52.261Z,89.91
2017-07-16T00:24:56.475Z,89.72
2017-07-16T00:25:00.691Z,89.72
2017-07-16T00:25:04.761Z,89.24
2017-07-16T00:25:08.714Z,89.53
2017-07-16T00:25:12.794Z,89.53
2017-07-16T00:25:17.011Z,89.43
2017-07-16T00:25:20.818Z,89.53
2017-07-16T00:25:25.019Z,89.43
2017-07-16T00:25:29.490Z,89.43
2017-07-16T00:25:33.565Z,89.72
2017-07-16T00:25:37.519Z,89.34
2017-07-16T00:25:41.594Z,89.24
2017-07-16T00:25:45.669Z,89.72
2017-07-16T00:25:49.629Z,89.24
2017-07-16T00:25:53.705Z,89.43
2017-07-16T00:25:57.780Z,89.34
2017-07-16T00:26:01.974Z,89.91
2017-07-16T00:26:06.165Z,89.53
2017-07-16T00:26:09.867Z,89.91
2017-07-16T00:26:13.677Z,89.34
2017-07-16T00:26:18.002Z,89.53
2017-07-16T00:26:22.088Z,89.34
2017-07-16T00:26:26.052Z,89.72
2017-07-16T00:26:30.384Z,89.53
2017-07-16T00:26:34.464Z,89.34
2017-07-16T00:26:38.294Z,89.81
2017-07-16T00:26:42.551Z,89.34
2017-07-16T00:26:46.617Z,89.15
2017-07-16T00:26:50.553Z,89.43
2017-07-16T00:26:54.258Z,89.34
2017-07-16T00:26:58.084Z,89.15
2017-07-16T00:27:02.039Z,89.43
2017-07-16T00:27:06.118Z,89.43
2017-07-16T00:27:10.207Z,89.24
2017-07-16T00:27:14.416Z,89.81
2017-07-16T00:27:18.622Z,89.34
2017-07-16T00:27:22.712Z,89.24
2017-07-16T00:27:26.660Z,89.24
2017-07-16T00:27:30.873Z,89.81
2017-07-16T00:27:34.943Z,89.62
2017-07-16T00:27:38.905Z,89.43
2017-07-16T00:27:42.982Z,89.53
2017-07-16T00:27:47.178Z,89.53
2017-07-16T00:27:51.379Z,89.43
2017-07-16T00:27:55.592Z,89.43
2017-07-16T00:27:59.661Z,89.34
2017-07-16T00:28:04.055Z,89.43
2017-07-16T00:28:08.270Z,89.43
2017-07-16T00:28:12.355Z,89.43
2017-07-16T00:28:16.426Z,89.34
2017-07-16T00:28:20.893Z,89.34
2017-07-16T00:28:24.736Z,89.34
2017-07-16T00:28:29.064Z,89.43
2017-07-16T00:28:33.386Z,89.34
2017-07-16T00:28:37.076Z,89.43
2017-07-16T00:28:41.040Z,89.62
2017-07-16T00:28:44.869Z,89.53
2017-07-16T00:28:48.945Z,89.43
2017-07-16T00:28:53.148Z,89.62
2017-07-16T00:28:57.219Z,89.62
2017-07-16T00:29:01.421Z,89.53
2017-07-16T00:29:05.615Z,89.62
2017-07-16T00:29:09.683Z,89.53
2017-07-16T00:29:13.883Z,89.62
2017-07-16T00:29:17.830Z,89.62
2017-07-16T00:29:21.908Z,89.43
2017-07-16T00:29:25.866Z,89.53
2017-07-16T00:29:29.824Z,89.43
2017-07-16T00:29:33.658Z,89.81
2017-07-16T00:29:37.650Z,89.53
2017-07-16T00:29:41.598Z,89.34
2017-07-16T00:29:45.934Z,89.43
2017-07-16T00:29:49.891Z,89.53
2017-07-16T00:29:53.855Z,89.43
2017-07-16T00:29:57.814Z,89.53
2017-07-16T00:30:02.119Z,89.43
2017-07-16T00:30:06.186Z,90.1
2017-07-16T00:30:10.253Z,89.34
2017-07-16T00:30:14.071Z,89.43
2017-07-16T00:30:18.037Z,89.15
2017-07-16T00:30:22.113Z,89.43
2017-07-16T00:30:26.065Z,89.43
2017-07-16T00:30:30.043Z,89.24
2017-07-16T00:30:33.870Z,89.43
2017-07-16T00:30:37.960Z,89.72
2017-07-16T00:30:42.041Z,89.34
2017-07-16T00:30:46.053Z,89.24
2017-07-16T00:30:50.378Z,89.91
2017-07-16T00:30:54.327Z,89.43
2017-07-16T00:30:58.661Z,89.72
2017-07-16T00:31:02.950Z,89.72
2017-07-16T00:31:06.791Z,89.72
2017-07-16T00:31:10.867Z,89.91
2017-07-16T00:31:15.063Z,89.72
2017-07-16T00:31:19.262Z,89.72
2017-07-16T00:31:23.468Z,89.43
2017-07-16T00:31:27.798Z,89.62
2017-07-16T00:31:31.999Z,90.01
2017-07-16T00:31:36.194Z,89.62
2017-07-16T00:31:40.522Z,90.3
2017-07-16T00:31:44.858Z,90.39
2017-07-16T00:31:49.070Z,90.48
2017-07-16T00:31:53.286Z,90.3
2017-07-16T00:31:57.237Z,90.48
2017-07-16T00:32:01.200Z,90.2
2017-07-16T00:32:05.292Z,90.2
2017-07-16T00:32:09.138Z,90.39
2017-07-16T00:32:13.829Z,90.39
2017-07-16T00:32:18.015Z,90.39
2017-07-16T00:32:22.093Z,90.01
2017-07-16T00:32:26.193Z,90.01
2017-07-16T00:32:30.265Z,90.3
2017-07-16T00:32:34.484Z,90.01
2017-07-16T00:32:38.434Z,90.01
2017-07-16T00:32:42.504Z,90.01
2017-07-16T00:32:46.606Z,90.01
2017-07-16T00:32:50.811Z,90.3
2017-07-16T00:32:55.026Z,90.39
2017-07-16T00:32:59.230Z,89.91
2017-07-16T00:33:03.427Z,90.3
2017-07-16T00:33:07.616Z,90.3
2017-07-16T00:33:11.584Z,90.01
2017-07-16T00:33:15.794Z,90.39
2017-07-16T00:33:20.133Z,90.3
2017-07-16T00:33:24.227Z,89.91
2017-07-16T00:33:28.319Z,90.2
2017-07-16T00:33:32.264Z,90.3
2017-07-16T00:33:36.202Z,90.2
2017-07-16T00:33:40.154Z,90.2
2017-07-16T00:33:44.249Z,90.3
2017-07-16T00:33:48.593Z,90.1
2017-07-16T00:33:52.551Z,90.2
2017-07-16T00:33:56.504Z,90.39
2017-07-16T00:34:00.464Z,90.2
2017-07-16T00:34:04.912Z,90.48
2017-07-16T00:34:08.858Z,89.91
2017-07-16T00:34:12.922Z,89.91
2017-07-16T00:34:16.998Z,89.91
2017-07-16T00:34:21.081Z,90.3
2017-07-16T00:34:25.196Z,89.91
2017-07-16T00:34:29.270Z,89.72
2017-07-16T00:34:33.356Z,89.43
2017-07-16T00:34:37.301Z,89.91
2017-07-16T00:34:41.392Z,90.1
2017-07-16T00:34:45.346Z,89.81
2017-07-16T00:34:49.674Z,89.91
2017-07-16T00:34:53.760Z,90.1
2017-07-16T00:34:57.956Z,89.62
2017-07-16T00:35:02.033Z,89.91
2017-07-16T00:35:05.976Z,89.53
2017-07-16T00:35:09.913Z,89.53
2017-07-16T00:35:14.001Z,89.62
2017-07-16T00:35:17.838Z,89.53
2017-07-16T00:35:21.798Z,89.43
2017-07-16T00:35:26.135Z,89.53
2017-07-16T00:35:30.222Z,89.15
2017-07-16T00:35:34.429Z,89.15
2017-07-16T00:35:38.530Z,89.43
2017-07-16T00:35:42.997Z,89.62
2017-07-16T00:35:47.194Z,89.43
2017-07-16T00:35:51.152Z,89.72
2017-07-16T00:35:55.353Z,89.53
2017-07-16T00:35:59.566Z,89.53
2017-07-16T00:36:03.799Z,89.53
2017-07-16T00:36:07.887Z,89.43
2017-07-16T00:36:11.707Z,89.43
2017-07-16T00:36:15.903Z,89.43
2017-07-16T00:36:19.975Z,89.91
2017-07-16T00:36:23.795Z,89.34
2017-07-16T00:36:28.256Z,89.72
2017-07-16T00:36:32.214Z,89.24
2017-07-16T00:36:36.282Z,89.91
2017-07-16T00:36:40.371Z,89.53
2017-07-16T00:36:44.581Z,89.34
2017-07-16T00:36:48.913Z,89.53
2017-07-16T00:36:52.989Z,89.62
2017-07-16T00:36:57.058Z,89.15
2017-07-16T00:37:01.144Z,89.53
2017-07-16T00:37:05.444Z,89.43
2017-07-16T00:37:09.390Z,89.15
2017-07-16T00:37:13.467Z,89.15
2017-07-16T00:37:17.448Z,89.24
2017-07-16T00:37:21.265Z,89.24
2017-07-16T00:37:25.205Z,89.43
2017-07-16T00:37:29.422Z,89.24
2017-07-16T00:37:33.497Z,89.24
2017-07-16T00:37:37.321Z,89.53
2017-07-16T00:37:41.530Z,89.24
2017-07-16T00:37:45.875Z,89.53
2017-07-16T00:37:50.092Z,89.53
2017-07-16T00:37:54.161Z,90.1
2017-07-16T00:37:58.493Z,90.01
2017-07-16T00:38:02.942Z,90.1
2017-07-16T00:38:06.902Z,89.91
2017-07-16T00:38:10.979Z,89.91
2017-07-16T00:38:15.188Z,89.53
2017-07-16T00:38:19.242Z,90.01
2017-07-16T00:38:23.306Z,90.1
2017-07-16T00:38:27.259Z,89.53
2017-07-16T00:38:31.458Z,90.01
2017-07-16T00:38:35.405Z,89.91
2017-07-16T00:38:39.383Z,89.34
2017-07-16T00:38:43.610Z,90.1
2017-07-16T00:38:47.928Z,89.53
2017-07-16T00:38:52.118Z,89.72
2017-07-16T00:38:56.192Z,89.43
2017-07-16T00:39:00.398Z,90.01
2017-07-16T00:39:04.274Z,89.62
2017-07-16T00:39:08.475Z,89.53
2017-07-16T00:39:12.682Z,89.53
2017-07-16T00:39:16.887Z,89.53
2017-07-16T00:39:21.096Z,89.24
2017-07-16T00:39:25.314Z,89.24
2017-07-16T00:39:29.386Z,89.53
2017-07-16T00:39:33.583Z,89.53
2017-07-16T00:39:37.405Z,89.53
2017-07-16T00:39:41.476Z,89.53
2017-07-16T00:39:45.688Z,89.24
2017-07-16T00:39:50.029Z,89.24
2017-07-16T00:39:54.125Z,89.15
2017-07-16T00:39:58.208Z,89.24
2017-07-16T00:40:02.195Z,89.62
2017-07-16T00:40:06.268Z,89.24
2017-07-16T00:40:10.606Z,89.15
2017-07-16T00:40:14.948Z,89.43
2017-07-16T00:40:19.165Z,89.43
2017-07-16T00:40:23.497Z,89.43
2017-07-16T00:40:27.824Z,89.24
2017-07-16T00:40:32.056Z,89.53
2017-07-16T00:40:36.124Z,89.43
2017-07-16T00:40:40.208Z,89.24
2017-07-16T00:40:44.056Z,89.24
2017-07-16T00:40:47.899Z,89.24
2017-07-16T00:40:51.853Z,89.43
2017-07-16T00:40:56.067Z,89.43
2017-07-16T00:41:00.273Z,89.24
2017-07-16T00:41:04.361Z,89.43
2017-07-16T00:41:08.436Z,89.43
2017-07-16T00:41:12.636Z,89.62
2017-07-16T00:41:16.842Z,89.72
2017-07-16T00:41:21.066Z,89.43
2017-07-16T00:41:25.401Z,89.43
2017-07-16T00:41:29.614Z,89.62
2017-07-16T00:41:33.679Z,89.15
2017-07-16T00:41:37.628Z,89.62
2017-07-16T00:41:41.822Z,89.34
2017-07-16T00:41:45.775Z,89.72
2017-07-16T00:41:49.611Z,89.15
2017-07-16T00:41:53.545Z,89.24
2017-07-16T00:41:58.005Z,89.43
2017-07-16T00:42:02.345Z,89.53
2017-07-16T00:42:06.557Z,89.24
2017-07-16T00:42:10.503Z,90.1
2017-07-16T00:42:14.592Z,89.53
2017-07-16T00:42:18.810Z,89.53
2017-07-16T00:42:22.891Z,89.53
2017-07-16T00:42:26.856Z,89.53
2017-07-16T00:42:31.078Z,90.01
2017-07-16T00:42:35.020Z,90.2
2017-07-16T00:42:39.099Z,89.53
2017-07-16T00:42:43.175Z,90.2
2017-07-16T00:42:47.136Z,89.72
2017-07-16T00:42:51.091Z,89.81
2017-07-16T00:42:55.039Z,90.01
2017-07-16T00:42:59.244Z,90.01
2017-07-16T00:43:03.053Z,89.72
2017-07-16T00:43:06.755Z,90.1
2017-07-16T00:43:10.449Z,90.01
2017-07-16T00:43:14.269Z,89.91
2017-07-16T00:43:18.228Z,89.91
2017-07-16T00:43:22.172Z,90.1
2017-07-16T00:43:26.502Z,89.91
2017-07-16T00:43:30.699Z,89.91
2017-07-16T00:43:34.772Z,90.1
2017-07-16T00:43:38.483Z,90.39
2017-07-16T00:43:42.830Z,90.3
2017-07-16T00:43:47.033Z,90.1
2017-07-16T00:43:50.995Z,89.91
2017-07-16T00:43:55.089Z,89.81
2017-07-16T00:43:59.342Z,89.81
2017-07-16T00:44:03.285Z,89.91
2017-07-16T00:44:07.232Z,89.91
2017-07-16T00:44:11.320Z,90.1
2017-07-16T00:44:15.138Z,89.91
2017-07-16T00:44:19.071Z,89.81
2017-07-16T00:44:23.142Z,89.91
2017-07-16T00:44:27.475Z,90.1
2017-07-16T00:44:31.424Z,89.91
2017-07-16T00:44:35.497Z,89.91
2017-07-16T00:44:39.446Z,90.1
2017-07-16T00:44:43.528Z,89.91
2017-07-16T00:44:47.857Z,89.91
2017-07-16T00:44:52.061Z,90.39
2017-07-16T00:44:56.524Z,89.91
2017-07-16T00:45:00.724Z,90.48
2017-07-16T00:45:04.683Z,89.81
2017-07-16T00:45:08.894Z,89.81
2017-07-16T00:45:12.956Z,89.91
2017-07-16T00:45:16.798Z,89.91
2017-07-16T00:45:20.881Z,89.81
2017-07-16T00:45:24.836Z,89.91
2017-07-16T00:45:29.042Z,90.2
2017-07-16T00:45:33.357Z,89.91
2017-07-16T00:45:37.054Z,89.62
2017-07-16T00:45:40.888Z,89.91
2017-07-16T00:45:44.836Z,89.53
2017-07-16T00:45:49.042Z,89.81
2017-07-16T00:45:53.015Z,89.62
2017-07-16T00:45:57.336Z,89.91
2017-07-16T00:46:01.535Z,90.1
2017-07-16T00:46:05.744Z,89.53
2017-07-16T00:46:09.805Z,89.43
2017-07-16T00:46:13.747Z,90.1
2017-07-16T00:46:17.697Z,89.91
2017-07-16T00:46:21.521Z,89.43
2017-07-16T00:46:25.480Z,90.2
2017-07-16T00:46:29.682Z,90.1
2017-07-16T00:46:33.771Z,90.2
2017-07-16T00:46:37.740Z,89.91
2017-07-16T00:46:41.835Z,90.01
2017-07-16T00:46:46.165Z,89.81
2017-07-16T00:46:50.380Z,89.91
2017-07-16T00:46:54.708Z,89.91
2017-07-16T00:46:58.926Z,89.81
2017-07-16T00:47:03.047Z,90.1
2017-07-16T00:47:07.278Z,89.81
2017-07-16T00:47:11.344Z,90.3
2017-07-16T00:47:15.543Z,89.81
2017-07-16T00:47:19.639Z,90.48
2017-07-16T00:47:23.843Z,90.3
2017-07-16T00:47:27.786Z,90.48
2017-07-16T00:47:31.860Z,90.39
2017-07-16T00:47:35.937Z,90.39
2017-07-16T00:47:39.888Z,90.1
2017-07-16T00:47:43.963Z,90.1
2017-07-16T00:47:48.171Z,90.3
2017-07-16T00:47:52.132Z,90.39
2017-07-16T00:47:56.468Z,89.91
2017-07-16T00:48:00.553Z,90.2
2017-07-16T00:48:04.918Z,89.72
2017-07-16T00:48:08.887Z,89.91
2017-07-16T00:48:12.976Z,89.91
2017-07-16T00:48:17.183Z,89.91
2017-07-16T00:48:21.410Z,90.1
2017-07-16T00:48:25.468Z,89.91
2017-07-16T00:48:29.425Z,90.01
2017-07-16T00:48:33.503Z,89.91
2017-07-16T00:48:37.454Z,90.1
2017-07-16T00:48:41.646Z,90.01
2017-07-16T00:48:45.862Z,90.1
2017-07-16T00:48:49.958Z,90.2
2017-07-16T00:48:54.041Z,90.01
2017-07-16T00:48:58.127Z,89.91
2017-07-16T00:49:02.202Z,90.01
2017-07-16T00:49:06.290Z,90.01
2017-07-16T00:49:10.366Z,90.1
2017-07-16T00:49:14.191Z,89.91
2017-07-16T00:49:17.899Z,90.01
2017-07-16T00:49:22.120Z,90.1
2017-07-16T00:49:26.443Z,90.2
2017-07-16T00:49:30.771Z,90.1
2017-07-16T00:49:34.970Z,90.2
2017-07-16T00:49:38.908Z,90.1
2017-07-16T00:49:42.864Z,90.2
2017-07-16T00:49:46.820Z,90.1
2017-07-16T00:49:50.839Z,90.01
2017-07-16T00:49:54.927Z,90.1
2017-07-16T00:49:59.134Z,90.3
2017-07-16T00:50:03.229Z,90.01
2017-07-16T00:50:07.187Z,90.3
2017-07-16T00:50:11.261Z,90.1
2017-07-16T00:50:15.471Z,90.01
2017-07-16T00:50:19.812Z,90.48
2017-07-16T00:50:24.021Z,90.1
2017-07-16T00:50:28.103Z,90.39
2017-07-16T00:50:32.315Z,90.2
2017-07-16T00:50:36.140Z,90.39
2017-07-16T00:50:40.091Z,90.48
2017-07-16T00:50:43.920Z,90.39
2017-07-16T00:50:48.241Z,90.1
2017-07-16T00:50:52.319Z,90.58
2017-07-16T00:50:56.647Z,90.2
2017-07-16T00:51:00.740Z,90.39
2017-07-16T00:51:04.831Z,90.3
2017-07-16T00:51:09.288Z,90.39
2017-07-16T00:51:13.545Z,90.48
2017-07-16T00:51:17.760Z,90.58
2017-07-16T00:51:21.841Z,90.3
2017-07-16T00:51:26.033Z,90.3
2017-07-16T00:51:29.974Z,90.39
2017-07-16T00:51:34.067Z,90.39
2017-07-16T00:51:38.151Z,90.39
2017-07-16T00:51:42.481Z,90.39
2017-07-16T00:51:46.676Z,90.39
2017-07-16T00:51:50.740Z,90.39
2017-07-16T00:51:54.692Z,90.1
2017-07-16T00:51:58.769Z,90.58
2017-07-16T00:52:02.839Z,90.48
2017-07-16T00:52:06.798Z,90.48
2017-07-16T00:52:10.634Z,90.48
2017-07-16T00:52:14.856Z,90.67
2017-07-16T00:52:19.182Z,90.48
2017-07-16T00:52:23.028Z,90.67
2017-07-16T00:52:27.114Z,90.67
2017-07-16T00:52:31.178Z,90.58
2017-07-16T00:52:35.138Z,90.67
2017-07-16T00:52:39.225Z,90.67
2017-07-16T00:52:43.045Z,90.58
2017-07-16T00:52:47.241Z,90.58